Terminal Aerodrome Forecast
Issued by NWS Caribou, ME

Home | Current Version | Previous Version | Text Only | Print | Product List | Glossary On
Versions: 1 2 3 4 5 6 7 8 9 10 11 12 13 14 15 16 17 18 19 20 21 22 23 24
619
FTUS41 KCAR 302320
TAFBGR
TAF
KBGR 302320Z 3100/3124 20008KT P6SM BKN120
     FM310630 22004KT 2SM BR BKN150
     FM311030 26005KT P6SM FEW200
     FM311600 26009KT P6SM FEW200=

USA.gov is the U.S. government's official web portal to all federal, state and local government web resources and services.